Time;durP1;ratioP1;P1;durP2;ratioP2;P2;SDS_P1;SDS_P2;PMS_P1;PMS_P2;Temp;Humidity;BMP_temperature;BMP_pressure;BME280_temperature;BME280_humidity;BME280_pressure;Samples;Min_cycle;Max_cycle;Signal;HPM_P1;HPM_P2
2021/01/05 00:00:29;;;;;;;18.63;7.30;;;2.60;93.60;;;;;;4980047;28;20030;-90
2021/01/05 00:02:54;;;;;;;16.63;6.83;;;2.60;93.60;;;;;;4980027;28;20030;-90
2021/01/05 00:05:22;;;;;;;20.87;7.20;;;2.70;93.60;;;;;;4980296;28;20031;-90
2021/01/05 00:07:50;;;;;;;16.70;6.80;;;2.60;93.70;;;;;;4980087;28;20026;-89
2021/01/05 00:10:17;;;;;;;18.92;7.25;;;2.60;93.60;;;;;;4997058;28;20037;-89
2021/01/05 00:12:43;;;;;;;19.13;7.70;;;2.60;93.70;;;;;;4979787;28;20150;-90
2021/01/05 00:15:10;;;;;;;18.83;7.80;;;2.60;93.70;;;;;;4980148;28;20062;-89
2021/01/05 00:17:36;;;;;;;19.90;8.43;;;2.60;93.60;;;;;;4979412;28;20125;-89
2021/01/05 00:20:13;;;;;;;17.60;7.07;;;2.60;93.70;;;;;;4980516;28;20566;-89
2021/01/05 00:22:39;;;;;;;17.57;7.37;;;2.60;93.70;;;;;;4979777;28;20030;-90
2021/01/05 00:25:06;;;;;;;18.77;8.43;;;2.60;93.70;;;;;;4979532;28;20387;-89
2021/01/05 00:27:32;;;;;;;18.93;8.53;;;2.60;93.70;;;;;;4979469;28;20038;-90
2021/01/05 00:29:58;;;;;;;20.20;8.40;;;2.60;93.70;;;;;;4979611;28;20443;-89
2021/01/05 00:32:24;;;;;;;18.87;8.03;;;2.50;94.00;;;;;;4979683;28;20049;-90
2021/01/05 00:34:51;;;;;;;19.23;8.30;;;2.50;93.90;;;;;;4979126;28;20038;-89
2021/01/05 00:37:17;;;;;;;19.60;8.20;;;2.50;93.90;;;;;;4996771;28;20034;-90
2021/01/05 00:39:43;;;;;;;18.07;8.03;;;2.50;93.90;;;;;;4996925;28;20054;-90
2021/01/05 00:42:09;;;;;;;17.63;7.33;;;2.60;94.00;;;;;;4997013;28;20520;-90
2021/01/05 00:44:35;;;;;;;18.33;7.20;;;2.50;93.90;;;;;;4996684;28;20057;-90
2021/01/05 00:47:01;;;;;;;18.27;8.43;;;2.60;93.80;;;;;;4979271;28;20077;-90
2021/01/05 00:49:26;;;;;;;18.07;7.60;;;2.60;93.90;;;;;;4979533;28;20022;-89
2021/01/05 00:51:52;;;;;;;18.90;7.60;;;2.60;93.80;;;;;;4978836;28;20108;-90
2021/01/05 00:54:18;;;;;;;17.40;7.43;;;2.50;93.80;;;;;;4979337;28;20034;-90
2021/01/05 00:57:01;;;;;;;19.13;8.00;;;2.50;93.90;;;;;;4979073;28;20033;-89
2021/01/05 00:59:27;;;;;;;18.43;7.73;;;2.50;93.90;;;;;;4978868;28;20030;-90
2021/01/05 01:01:53;;;;;;;19.43;8.70;;;2.60;93.90;;;;;;4978690;28;20038;-89
2021/01/05 01:04:19;;;;;;;17.70;7.80;;;2.50;93.80;;;;;;4979356;28;20090;-90
2021/01/05 01:06:44;;;;;;;19.20;8.40;;;2.50;94.00;;;;;;4979515;28;20085;-90
2021/01/05 01:09:10;;;;;;;19.80;8.00;;;2.50;93.90;;;;;;4978992;28;20113;-90
2021/01/05 01:11:37;;;;;;;18.30;7.33;;;2.50;94.00;;;;;;4979206;28;20054;-89
2021/01/05 01:14:04;;;;;;;17.63;7.20;;;2.50;93.90;;;;;;4996360;28;20038;-90
2021/01/05 01:16:29;;;;;;;18.23;7.70;;;2.60;94.00;;;;;;4978049;28;20064;-89
2021/01/05 01:18:55;;;;;;;18.20;7.57;;;2.60;93.90;;;;;;4978990;28;20034;-90
2021/01/05 01:21:20;;;;;;;18.57;7.53;;;2.60;93.90;;;;;;4978482;28;20030;-89
2021/01/05 01:23:46;;;;;;;18.03;7.37;;;2.50;94.30;;;;;;4979176;28;20118;-90
2021/01/05 01:26:11;;;;;;;18.03;7.27;;;2.50;93.90;;;;;;4979037;28;20065;-89
2021/01/05 01:28:37;;;;;;;18.07;8.33;;;2.50;94.10;;;;;;4978819;28;20124;-90
2021/01/05 01:31:03;;;;;;;18.53;7.30;;;2.50;94.00;;;;;;4978321;28;20033;-89
2021/01/05 01:33:28;;;;;;;19.03;7.43;;;2.50;94.10;;;;;;4978860;28;20030;-90
2021/01/05 01:35:54;;;;;;;18.93;7.47;;;2.50;94.10;;;;;;4978833;28;20022;-90
2021/01/05 01:38:19;;;;;;;17.43;7.17;;;2.60;94.00;;;;;;4978070;28;20026;-89
2021/01/05 01:40:45;;;;;;;19.27;7.33;;;2.50;94.00;;;;;;4978597;28;20050;-90
2021/01/05 01:43:11;;;;;;;18.57;6.97;;;2.50;94.10;;;;;;4978588;28;20030;-90
2021/01/05 01:45:36;;;;;;;18.67;7.70;;;2.50;94.10;;;;;;4995587;28;20026;-90
2021/01/05 01:48:04;;;;;;;17.47;7.47;;;2.50;94.10;;;;;;4995782;28;20030;-89
2021/01/05 01:50:32;;;;;;;17.90;6.87;;;2.50;94.00;;;;;;4977783;28;20089;-90
2021/01/05 01:53:52;;;;;;;17.20;7.03;;;2.40;94.10;;;;;;4977488;28;20022;-90
2021/01/05 01:56:59;;;;;;;19.67;7.10;;;2.50;94.10;;;;;;4958064;28;20038;-90
2021/01/05 01:59:43;;;;;;;19.40;7.07;;;2.50;94.10;;;;;;4957951;28;20404;-89
2021/01/05 02:02:13;;;;;;;17.73;6.90;;;2.50;94.00;;;;;;4977909;28;20062;-90
2021/01/05 02:04:44;;;;;;;20.20;8.00;;;2.50;94.00;;;;;;4978072;28;20026;-90
2021/01/05 02:07:17;;;;;;;19.23;7.90;;;2.50;93.90;;;;;;4978116;28;20061;-90
2021/01/05 02:10:16;;;;;;;18.23;7.10;;;2.60;93.90;;;;;;4995661;28;20022;-90
2021/01/05 02:12:51;;;;;;;18.67;7.73;;;2.50;94.00;;;;;;4973633;28;20123;-90
2021/01/05 02:15:31;;;;;;;19.73;7.97;;;2.50;94.00;;;;;;4975192;28;20402;-89
2021/01/05 02:18:06;;;;;;;19.60;8.17;;;2.50;94.10;;;;;;4974673;28;20026;-90
2021/01/05 02:20:46;;;;;;;22.03;9.40;;;2.50;94.20;;;;;;4974833;28;20084;-89
2021/01/05 02:23:45;;;;;;;19.60;8.10;;;2.50;94.10;;;;;;4974564;28;20489;-90
2021/01/05 02:26:29;;;;;;;21.23;8.52;;;2.50;94.10;;;;;;4974705;28;20054;-90
2021/01/05 02:29:00;;;;;;;21.83;7.80;;;2.50;94.10;;;;;;4974277;28;20023;-90
2021/01/05 02:31:38;;;;;;;19.13;8.43;;;2.60;94.00;;;;;;4974571;28;20074;-90
2021/01/05 02:34:35;;;;;;;19.63;7.10;;;2.50;94.10;;;;;;4976220;28;20029;-89
2021/01/05 02:37:08;;;;;;;19.77;7.83;;;2.50;94.00;;;;;;4978766;28;20266;-90
2021/01/05 02:39:59;;;;;;;19.87;7.63;;;2.50;94.10;;;;;;4978268;28;20038;-90
2021/01/05 02:42:58;;;;;;;17.53;7.20;;;2.50;94.00;;;;;;4978671;28;20552;-90
2021/01/05 02:45:30;;;;;;;;;;;2.50;94.00;;;;;;4978731;28;20030;-89
2021/01/05 02:48:25;;;;;;;20.60;7.33;;;2.50;94.00;;;;;;4979344;28;20005;-89
2021/01/05 02:51:27;;;;;;;21.47;8.20;;;2.50;94.00;;;;;;4978031;28;20054;-89
2021/01/05 02:54:18;;;;;;;19.37;7.77;;;2.50;94.00;;;;;;4978341;28;20122;-88
2021/01/05 02:57:01;;;;;;;22.57;9.00;;;2.50;94.10;;;;;;4977872;28;20089;-91
2021/01/05 02:59:54;;;;;;;20.80;8.30;;;2.50;94.00;;;;;;4979884;28;20090;-91
2021/01/05 03:02:45;;;;;;;23.90;9.33;;;2.50;94.20;;;;;;4978145;28;20093;-90
2021/01/05 03:05:10;;;;;;;20.93;7.83;;;2.40;94.20;;;;;;4978500;28;20038;-90
2021/01/05 03:07:37;;;;;;;20.50;8.33;;;2.50;94.10;;;;;;4978955;28;20031;-89
2021/01/05 03:10:21;;;;;;;21.37;9.37;;;2.50;94.10;;;;;;4978524;28;20077;-89
2021/01/05 03:13:07;;;;;;;20.07;8.00;;;2.40;94.20;;;;;;4977916;28;20039;-90
2021/01/05 03:15:56;;;;;;;18.47;8.07;;;2.50;94.10;;;;;;4977866;28;20027;-90
2021/01/05 03:18:59;;;;;;;21.63;8.53;;;2.50;94.00;;;;;;4978088;28;20034;-90
2021/01/05 03:21:28;;;;;;;21.50;9.03;;;2.60;94.00;;;;;;4968793;28;20039;-90
2021/01/05 03:23:55;;;;;;;20.10;8.93;;;2.50;94.00;;;;;;4979259;28;20038;-89
2021/01/05 03:26:29;;;;;;;21.50;8.93;;;2.50;94.20;;;;;;4978875;28;20046;-89
2021/01/05 03:28:56;;;;;;;20.33;8.67;;;2.50;94.20;;;;;;4978096;28;20034;-89
2021/01/05 03:31:27;;;;;;;20.30;9.10;;;2.50;94.00;;;;;;4977349;28;20053;-89
2021/01/05 03:33:58;;;;;;;22.03;9.20;;;2.50;94.10;;;;;;4977432;28;20018;-90
2021/01/05 03:36:24;;;;;;;20.47;8.50;;;2.50;94.10;;;;;;4979080;28;20042;-90
2021/01/05 03:38:49;;;;;;;19.53;8.53;;;2.50;94.00;;;;;;4978160;28;20031;-90
2021/01/05 03:41:15;;;;;;;23.73;10.17;;;2.50;94.20;;;;;;4977956;28;20481;-89
2021/01/05 03:43:41;;;;;;;25.07;9.27;;;2.40;94.30;;;;;;4977223;28;20045;-90
2021/01/05 03:46:06;;;;;;;23.20;8.77;;;2.50;94.20;;;;;;4977110;28;20113;-89
2021/01/05 03:48:32;;;;;;;22.20;9.43;;;2.50;94.30;;;;;;4977525;28;20058;-90
2021/01/05 03:50:57;;;;;;;21.03;8.70;;;2.50;94.20;;;;;;4977348;28;20027;-89
2021/01/05 03:53:23;;;;;;;22.67;9.57;;;2.50;94.30;;;;;;4977391;28;20027;-90
2021/01/05 03:55:49;;;;;;;24.27;9.47;;;2.40;94.40;;;;;;4977602;28;20383;-89
2021/01/05 03:58:14;;;;;;;23.17;9.30;;;2.40;94.50;;;;;;4976903;28;20122;-90
2021/01/05 04:00:40;;;;;;;21.80;8.90;;;2.40;94.50;;;;;;4976704;28;20039;-90
2021/01/05 04:03:05;;;;;;;24.70;9.63;;;2.50;94.30;;;;;;4977221;28;20034;-89
2021/01/05 04:05:31;;;;;;;24.77;9.50;;;2.50;94.40;;;;;;4978243;28;20102;-90
2021/01/05 04:07:57;;;;;;;22.40;9.63;;;2.40;94.40;;;;;;4976834;28;20034;-90
2021/01/05 04:10:23;;;;;;;21.70;9.37;;;2.50;94.30;;;;;;4976906;28;20035;-90
2021/01/05 04:12:50;;;;;;;20.37;9.07;;;2.50;94.20;;;;;;4977308;28;20488;-90
2021/01/05 04:15:22;;;;;;;20.77;8.67;;;2.50;94.30;;;;;;4976826;28;20027;-89
2021/01/05 04:17:48;;;;;;;23.67;9.47;;;2.50;94.30;;;;;;4977092;28;20499;-90
2021/01/05 04:20:14;;;;;;;21.13;9.10;;;2.50;94.20;;;;;;4977184;28;20122;-90
2021/01/05 04:22:40;;;;;;;21.10;9.07;;;2.50;94.20;;;;;;4976600;28;20065;-89
2021/01/05 04:25:07;;;;;;;21.20;9.03;;;2.50;94.00;;;;;;4976519;28;20038;-90
2021/01/05 04:27:32;;;;;;;21.80;8.83;;;2.60;93.80;;;;;;4976663;28;20039;-90
2021/01/05 04:29:58;;;;;;;23.53;9.57;;;2.60;93.90;;;;;;4976900;28;20027;-89
2021/01/05 04:32:24;;;;;;;20.77;9.30;;;2.50;93.90;;;;;;4976856;28;20023;-89
2021/01/05 04:34:49;;;;;;;21.03;8.57;;;2.50;93.90;;;;;;4977275;28;20030;-89
2021/01/05 04:37:15;;;;;;;22.80;9.60;;;2.60;93.80;;;;;;4976235;28;20031;-90
2021/01/05 04:39:40;;;;;;;23.37;10.57;;;2.50;94.10;;;;;;4977997;28;20584;-90
2021/01/05 04:42:32;;;;;;;21.67;9.40;;;2.50;94.00;;;;;;4976760;28;20507;-90
2021/01/05 04:45:04;;;;;;;24.40;10.40;;;2.50;94.10;;;;;;4975617;28;20034;-89
2021/01/05 04:48:01;;;;;;;21.30;10.23;;;2.50;94.00;;;;;;4976443;28;20404;-90
2021/01/05 04:50:44;;;;;;;22.60;9.77;;;2.50;94.10;;;;;;4976062;28;20034;-90
2021/01/05 04:53:26;;;;;;;21.20;10.50;;;2.50;94.00;;;;;;4977436;28;20043;-88
2021/01/05 04:55:58;;;;;;;24.80;11.13;;;2.50;94.10;;;;;;4975986;28;20027;-89
2021/01/05 04:58:44;;;;;;;22.60;10.87;;;2.50;94.20;;;;;;4977192;28;20400;-89
2021/01/05 05:01:25;;;;;;;23.00;10.10;;;2.50;94.30;;;;;;4976928;28;20116;-90
2021/01/05 05:03:59;;;;;;;21.17;9.07;;;2.50;94.20;;;;;;4976413;28;20038;-90
2021/01/05 05:06:34;;;;;;;22.00;9.67;;;2.50;94.20;;;;;;4975726;28;20030;-89
2021/01/05 05:09:04;;;;;;;20.77;8.97;;;2.50;94.10;;;;;;4975896;28;20117;-88
2021/01/05 05:11:42;;;;;;;22.23;8.70;;;2.50;94.10;;;;;;4975358;28;20062;-89
2021/01/05 05:14:31;;;;;;;19.47;8.60;;;2.50;94.10;;;;;;4975719;28;20082;-88
2021/01/05 05:17:47;;;;;;;20.10;8.55;;;2.50;94.10;;;;;;4975958;28;20031;-89
2021/01/05 05:20:34;;;;;;;20.93;9.30;;;2.50;94.10;;;;;;4974670;28;20486;-88
2021/01/05 05:23:06;;;;;;;21.13;8.37;;;2.50;94.00;;;;;;4975889;28;20031;-88
2021/01/05 05:25:42;;;;;;;20.73;9.07;;;2.60;93.90;;;;;;4975915;28;20035;-89
2021/01/05 05:28:15;;;;;;;18.67;8.30;;;2.60;93.80;;;;;;4975177;28;20089;-88
2021/01/05 05:30:44;;;;;;;19.67;9.10;;;2.60;93.90;;;;;;4975925;28;20059;-88
2021/01/05 05:33:24;;;;;;;21.02;9.57;;;2.60;94.00;;;;;;4975875;28;20026;-88
2021/01/05 05:36:11;;;;;;;20.63;9.10;;;2.60;93.90;;;;;;4975717;28;20023;-89
2021/01/05 05:38:55;;;;;;;20.07;9.23;;;2.60;93.80;;;;;;4975562;28;20026;-88
2021/01/05 05:41:42;;;;;;;20.20;9.10;;;2.60;93.80;;;;;;4975561;28;20027;-88
2021/01/05 05:44:22;;;;;;;22.70;9.97;;;2.60;93.70;;;;;;4974902;28;20023;-89
2021/01/05 05:47:00;;;;;;;20.40;9.60;;;2.60;93.70;;;;;;4974683;28;20077;-89
2021/01/05 05:49:52;;;;;;;21.53;9.63;;;2.60;93.80;;;;;;4975379;28;20027;-89
2021/01/05 05:52:31;;;;;;;22.57;10.33;;;2.60;93.80;;;;;;4968136;28;20030;-85
2021/01/05 05:54:59;;;;;;;21.75;9.60;;;2.60;93.80;;;;;;4979589;28;20058;-84
2021/01/05 05:57:43;;;;;;;22.37;10.30;;;2.60;93.80;;;;;;4979489;28;20492;-85
2021/01/05 06:00:09;;;;;;;20.73;9.87;;;2.60;93.80;;;;;;4978820;28;20022;-87
2021/01/05 06:02:35;;;;;;;21.17;9.97;;;2.60;93.90;;;;;;4975355;28;20498;-86
2021/01/05 06:05:11;;;;;;;21.47;10.37;;;2.60;93.80;;;;;;4981190;28;20033;-85
2021/01/05 06:07:37;;;;;;;22.03;10.87;;;2.60;93.80;;;;;;4979593;28;20125;-85
2021/01/05 06:10:03;;;;;;;21.27;9.90;;;2.50;93.80;;;;;;4980891;28;20286;-84
2021/01/05 06:12:28;;;;;;;20.93;10.87;;;2.50;93.90;;;;;;4984849;28;20034;-85
2021/01/05 06:14:54;;;;;;;22.27;11.03;;;2.60;93.90;;;;;;5003378;28;20080;-85
2021/01/05 06:17:19;;;;;;;23.70;10.70;;;2.50;93.90;;;;;;4986797;28;20031;-85
2021/01/05 06:19:45;;;;;;;21.83;11.07;;;2.50;93.90;;;;;;5003439;28;20022;-85
2021/01/05 06:22:10;;;;;;;21.17;10.23;;;2.50;93.90;;;;;;4982239;28;20484;-86
2021/01/05 06:24:36;;;;;;;23.10;10.83;;;2.60;93.90;;;;;;4996638;28;20026;-85
2021/01/05 06:27:01;;;;;;;22.67;11.10;;;2.60;93.90;;;;;;4979001;28;20037;-87
2021/01/05 06:29:27;;;;;;;21.53;10.93;;;2.60;93.90;;;;;;4982398;28;20026;-86
2021/01/05 06:31:53;;;;;;;22.10;10.90;;;2.60;93.80;;;;;;5017387;28;20029;-86
2021/01/05 06:34:18;;;;;;;22.10;11.37;;;2.60;93.80;;;;;;5001186;28;20038;-86
2021/01/05 06:36:44;;;;;;;21.87;10.50;;;2.60;93.80;;;;;;4991730;28;20034;-86
2021/01/05 06:39:09;;;;;;;23.50;11.03;;;2.70;93.70;;;;;;4978577;28;20026;-88
2021/01/05 06:41:35;;;;;;;21.97;11.73;;;2.60;93.70;;;;;;4979073;28;20535;-87
2021/01/05 06:44:00;;;;;;;25.87;12.33;;;2.60;93.70;;;;;;4996477;28;20022;-89
2021/01/05 06:46:26;;;;;;;22.47;11.27;;;2.60;93.70;;;;;;4997584;28;20081;-86
2021/01/05 06:48:51;;;;;;;22.53;11.17;;;2.60;93.70;;;;;;4980124;28;20037;-86
2021/01/05 06:51:17;;;;;;;22.80;11.23;;;2.60;93.70;;;;;;4979183;28;20023;-84
2021/01/05 06:53:42;;;;;;;20.47;10.30;;;2.70;93.60;;;;;;4990082;28;20030;-87
2021/01/05 06:56:13;;;;;;;21.10;10.57;;;2.70;93.70;;;;;;4979922;28;20077;-86
2021/01/05 06:58:39;;;;;;;23.00;10.63;;;2.70;93.70;;;;;;4990439;28;20033;-84
2021/01/05 07:01:04;;;;;;;23.43;11.80;;;2.60;93.50;;;;;;4979396;28;20022;-88
2021/01/05 07:03:30;;;;;;;21.83;10.90;;;2.70;93.70;;;;;;4986720;28;20034;-88
2021/01/05 07:05:55;;;;;;;22.20;11.43;;;2.70;93.60;;;;;;4978577;28;20484;-89
2021/01/05 07:08:21;;;;;;;21.43;11.30;;;2.70;93.70;;;;;;4996963;28;20030;-89
2021/01/05 07:10:47;;;;;;;21.83;11.67;;;2.70;93.70;;;;;;4995732;28;20109;-89
2021/01/05 07:13:13;;;;;;;23.20;11.40;;;2.60;93.70;;;;;;4986810;28;20500;-89
2021/01/05 07:15:39;;;;;;;21.53;10.60;;;2.70;93.70;;;;;;4993922;28;20055;-89
2021/01/05 07:18:05;;;;;;;21.27;10.73;;;2.60;93.70;;;;;;4994433;28;20034;-90
2021/01/05 07:20:30;;;;;;;22.53;11.13;;;2.70;93.70;;;;;;4995758;28;20070;-89
2021/01/05 07:22:56;;;;;;;21.20;11.53;;;2.70;93.60;;;;;;4998150;28;20042;-89
2021/01/05 07:25:22;;;;;;;22.00;11.03;;;2.60;93.70;;;;;;4997923;28;20027;-90
2021/01/05 07:27:47;;;;;;;20.57;10.20;;;2.60;93.70;;;;;;4997982;28;20036;-88
2021/01/05 07:30:13;;;;;;;22.50;11.47;;;2.70;93.70;;;;;;4998361;28;20029;-90
2021/01/05 07:32:39;;;;;;;21.30;10.87;;;2.60;93.70;;;;;;4998276;28;20173;-92
2021/01/05 07:35:05;;;;;;;22.37;11.47;;;2.70;93.70;;;;;;4998912;28;20054;-85
2021/01/05 07:37:37;;;;;;;20.23;10.50;;;2.60;93.70;;;;;;5002801;28;20030;-82
2021/01/05 07:40:05;;;;;;;21.87;10.37;;;2.60;93.70;;;;;;4998942;28;20038;-88
2021/01/05 07:42:32;;;;;;;22.07;11.30;;;2.70;93.70;;;;;;4997933;28;20026;-88
2021/01/05 07:45:00;;;;;;;22.20;10.47;;;2.70;93.70;;;;;;4998131;28;20027;-88
2021/01/05 07:47:37;;;;;;;22.43;11.10;;;2.70;93.70;;;;;;4999158;28;20022;-88
2021/01/05 07:50:06;;;;;;;25.57;12.07;;;2.70;93.60;;;;;;5003209;28;20043;-82
2021/01/05 07:52:38;;;;;;;22.63;10.93;;;2.60;93.70;;;;;;5011212;22;20094;-86
2021/01/05 07:55:12;;;;;;;22.07;11.03;;;2.60;93.80;;;;;;4968096;28;20034;-85
2021/01/05 07:57:37;;;;;;;23.80;11.80;;;2.60;93.80;;;;;;4967008;28;20034;-86
2021/01/05 08:00:08;;;;;;;21.37;9.77;;;2.70;93.70;;;;;;4979509;28;20049;-86
2021/01/05 08:02:44;;;;;;;21.60;10.93;;;2.70;93.70;;;;;;4997801;28;20030;-88
2021/01/05 08:05:16;;;;;;;20.27;10.67;;;2.70;93.70;;;;;;4985587;28;20026;-87
2021/01/05 08:07:43;;;;;;;22.10;10.73;;;2.70;93.70;;;;;;4982749;28;20041;-86
2021/01/05 08:10:14;;;;;;;23.50;11.97;;;2.60;93.70;;;;;;4983457;28;20023;-87
2021/01/05 08:12:40;;;;;;;25.50;11.87;;;2.70;93.70;;;;;;4980541;28;20029;-86
2021/01/05 08:15:06;;;;;;;23.93;12.30;;;2.60;93.70;;;;;;4981962;28;20086;-87
2021/01/05 08:17:33;;;;;;;24.03;10.80;;;2.60;93.70;;;;;;4980010;28;20046;-86
2021/01/05 08:19:59;;;;;;;25.87;12.93;;;2.60;93.70;;;;;;4965572;28;20090;-87
2021/01/05 08:22:24;;;;;;;25.87;12.37;;;2.60;93.80;;;;;;4964354;28;20031;-91
2021/01/05 08:24:54;;;;;;;23.33;11.30;;;2.60;93.80;;;;;;4967232;28;20046;-91
2021/01/05 08:27:22;;;;;;;23.77;11.73;;;2.60;93.80;;;;;;4965795;28;20030;-92
2021/01/05 08:29:49;;;;;;;23.20;10.87;;;2.60;93.80;;;;;;4973639;28;20014;-90
2021/01/05 08:32:15;;;;;;;24.87;12.50;;;2.60;93.80;;;;;;4973417;28;20058;-91
2021/01/05 08:34:43;;;;;;;21.63;10.73;;;2.60;93.90;;;;;;4959669;28;20143;-91
2021/01/05 08:37:09;;;;;;;24.23;11.53;;;2.60;93.90;;;;;;4965188;28;20033;-89
2021/01/05 08:39:36;;;;;;;26.03;12.90;;;2.60;93.90;;;;;;4964698;28;20056;-92
2021/01/05 08:42:02;;;;;;;26.27;12.70;;;2.70;93.80;;;;;;4974541;28;20030;-91
2021/01/05 08:44:27;;;;;;;25.90;12.07;;;2.60;93.90;;;;;;4969614;28;20484;-91
2021/01/05 08:47:03;;;;;;;23.97;12.23;;;2.60;93.90;;;;;;4965244;28;20034;-90
2021/01/05 08:49:35;;;;;;;26.23;11.77;;;2.70;93.90;;;;;;4967302;28;20019;-91
2021/01/05 08:52:02;;;;;;;24.47;11.93;;;2.70;93.70;;;;;;4966126;28;20055;-91
2021/01/05 08:54:31;;;;;;;24.83;11.87;;;2.70;93.80;;;;;;4966696;28;20392;-92
2021/01/05 08:57:01;;;;;;;26.08;12.48;;;2.70;93.90;;;;;;4968838;28;20029;-86
2021/01/05 08:59:27;;;;;;;24.55;11.98;;;2.70;94.00;;;;;;4962080;28;20054;-88
2021/01/05 09:01:53;;;;;;;26.63;12.83;;;2.70;93.90;;;;;;4963678;28;20485;-87
2021/01/05 09:04:19;;;;;;;25.13;10.97;;;2.70;93.90;;;;;;4999670;28;20101;-87
2021/01/05 09:06:49;;;;;;;26.00;11.93;;;2.70;93.80;;;;;;4981717;28;20294;-81
2021/01/05 09:09:16;;;;;;;23.67;11.47;;;2.70;93.80;;;;;;5000977;28;20037;-85
2021/01/05 09:11:41;;;;;;;26.23;13.20;;;2.60;93.90;;;;;;4999654;28;20026;-86
2021/01/05 09:14:07;;;;;;;25.07;11.67;;;2.60;93.90;;;;;;4982182;28;20371;-89
2021/01/05 09:16:32;;;;;;;27.70;11.53;;;2.60;94.00;;;;;;4980385;28;20447;-88
2021/01/05 09:18:59;;;;;;;26.13;12.90;;;2.70;93.80;;;;;;4967613;28;20015;-93
2021/01/05 09:21:27;;;;;;;26.67;11.97;;;2.60;93.90;;;;;;4978982;28;20117;-93
2021/01/05 09:24:00;;;;;;;27.73;12.13;;;2.60;94.00;;;;;;4979643;28;20131;-92
2021/01/05 09:26:29;;;;;;;26.83;12.30;;;2.60;93.90;;;;;;4971766;28;20015;-92
2021/01/05 09:28:55;;;;;;;28.92;13.05;;;2.60;94.00;;;;;;4976332;28;20043;-91
2021/01/05 09:31:22;;;;;;;26.23;12.37;;;2.70;94.00;;;;;;4972548;28;20078;-82
2021/01/05 09:33:48;;;;;;;28.00;12.77;;;2.70;93.90;;;;;;4977925;28;20041;-89
2021/01/05 09:36:18;;;;;;;27.27;11.83;;;2.70;93.90;;;;;;4970868;28;20037;-92
2021/01/05 09:38:48;;;;;;;28.13;12.53;;;2.70;93.90;;;;;;4973711;28;20022;-91
2021/01/05 09:41:24;;;;;;;;;;;2.70;93.90;;;;;;4968685;28;20026;-92
2021/01/05 09:43:50;;;;;;;26.80;11.73;;;2.60;93.80;;;;;;4965736;28;19913;-92
2021/01/05 09:46:18;;;;;;;23.33;10.93;;;2.60;94.10;;;;;;4964016;28;20105;-91
2021/01/05 09:48:44;;;;;;;26.07;11.50;;;2.70;94.10;;;;;;4973298;28;20038;-92
2021/01/05 09:51:25;;;;;;;24.17;11.83;;;2.70;94.10;;;;;;4961550;28;20023;-90
2021/01/05 09:53:51;;;;;;;23.33;10.93;;;2.60;94.00;;;;;;4972760;28;20088;-87
2021/01/05 09:56:17;;;;;;;25.00;11.23;;;2.70;93.90;;;;;;5006957;28;20030;-90
2021/01/05 09:58:44;;;;;;;24.20;11.40;;;2.70;93.80;;;;;;4995803;28;20042;-92
2021/01/05 10:01:11;;;;;;;26.37;11.40;;;2.70;93.90;;;;;;5007143;28;20034;-88
2021/01/05 10:03:36;;;;;;;25.97;11.23;;;2.70;94.00;;;;;;4970567;28;20030;-88
2021/01/05 10:06:10;;;;;;;26.10;12.13;;;2.60;93.90;;;;;;4959499;28;20049;-89
2021/01/05 10:08:35;;;;;;;26.33;11.13;;;2.60;94.00;;;;;;4958070;28;20548;-84
2021/01/05 10:11:01;;;;;;;29.63;13.13;;;2.60;94.00;;;;;;4971646;28;20131;-83
2021/01/05 10:13:27;;;;;;;25.67;11.77;;;2.70;94.00;;;;;;4977264;28;20113;-88
2021/01/05 10:15:52;;;;;;;26.67;12.17;;;2.70;93.80;;;;;;4963878;28;20231;-90
2021/01/05 10:18:18;;;;;;;26.20;11.97;;;2.70;93.90;;;;;;4963208;28;20062;-89
2021/01/05 10:20:43;;;;;;;25.60;11.67;;;2.80;93.80;;;;;;4959681;28;20035;-89
2021/01/05 10:23:09;;;;;;;24.63;10.93;;;2.70;94.00;;;;;;4958893;28;20058;-89
2021/01/05 10:25:35;;;;;;;25.10;11.03;;;2.70;94.00;;;;;;4958654;28;20038;-90
2021/01/05 10:28:00;;;;;;;23.27;10.30;;;2.70;94.00;;;;;;4960138;28;20489;-90
2021/01/05 10:30:26;;;;;;;23.97;10.50;;;2.70;94.00;;;;;;4963110;28;20027;-91
2021/01/05 10:32:52;;;;;;;22.67;10.23;;;2.70;93.90;;;;;;4968988;28;20412;-90
2021/01/05 10:35:20;;;;;;;23.07;10.83;;;2.70;93.90;;;;;;4959318;28;20396;-90
2021/01/05 10:37:47;;;;;;;24.80;11.27;;;2.70;93.80;;;;;;4960581;28;20058;-93
2021/01/05 10:40:18;;;;;;;25.43;10.93;;;2.70;93.90;;;;;;4980600;28;20030;-91
2021/01/05 10:43:09;;;;;;;23.93;10.17;;;2.70;93.90;;;;;;4977999;28;20029;-92
2021/01/05 10:45:34;;;;;;;25.50;11.13;;;2.80;93.90;;;;;;4995002;28;20031;-92
2021/01/05 10:48:06;;;;;;;22.03;10.27;;;2.80;93.90;;;;;;4978847;28;20028;-91
2021/01/05 10:50:34;;;;;;;22.70;9.87;;;2.80;93.80;;;;;;4981003;28;20142;-93
2021/01/05 10:53:00;;;;;;;23.60;9.97;;;2.80;93.70;;;;;;4986116;28;20515;-83
2021/01/05 10:55:25;;;;;;;27.87;11.10;;;2.80;93.70;;;;;;4982646;28;20030;-85
2021/01/05 10:57:51;;;;;;;27.30;11.20;;;2.90;93.90;;;;;;5002729;28;20030;-85
2021/01/05 11:00:19;;;;;;;23.53;10.07;;;3.00;93.90;;;;;;5000784;28;20030;-83
2021/01/05 11:02:51;;;;;;;23.90;10.80;;;3.20;93.80;;;;;;4974521;28;20039;-91
2021/01/05 11:05:18;;;;;;;25.13;10.77;;;3.30;93.40;;;;;;4977270;28;20031;-94
2021/01/05 11:07:50;;;;;;;24.80;11.70;;;3.30;93.30;;;;;;4979597;28;20051;-92
2021/01/05 11:10:19;;;;;;;24.10;10.40;;;3.20;93.20;;;;;;4973682;28;20030;-92
2021/01/05 11:12:45;;;;;;;25.10;10.82;;;3.20;93.20;;;;;;4963964;28;20035;-92
2021/01/05 11:15:13;;;;;;;24.77;11.43;;;3.20;93.10;;;;;;4963008;28;20054;-92
2021/01/05 11:17:46;;;;;;;24.80;11.37;;;3.10;93.20;;;;;;4972587;28;20026;-93
2021/01/05 11:20:16;;;;;;;25.40;11.50;;;3.00;93.40;;;;;;4972286;28;20023;-88
2021/01/05 11:22:41;;;;;;;26.23;12.47;;;3.10;93.40;;;;;;4960682;28;20026;-90
2021/01/05 11:25:09;;;;;;;26.17;11.30;;;3.00;93.40;;;;;;4958742;28;20109;-89
2021/01/05 11:27:34;;;;;;;26.57;12.07;;;3.00;93.60;;;;;;4963474;28;20136;-87
2021/01/05 11:30:00;;;;;;;22.80;9.77;;;3.00;93.60;;;;;;4998613;28;20484;-92
2021/01/05 11:32:26;;;;;;;26.13;11.60;;;3.00;93.60;;;;;;4988454;28;20117;-82
2021/01/05 11:34:51;;;;;;;27.93;12.73;;;2.90;93.60;;;;;;4984415;28;20035;-82
2021/01/05 11:37:20;;;;;;;26.67;11.23;;;3.00;93.60;;;;;;4991644;28;20034;-83
2021/01/05 11:39:48;;;;;;;29.60;12.98;;;3.00;93.60;;;;;;4985696;28;20117;-84
2021/01/05 11:42:16;;;;;;;28.93;12.20;;;3.00;93.50;;;;;;4981424;28;20446;-82
2021/01/05 11:44:44;;;;;;;29.08;12.43;;;3.00;93.60;;;;;;4960087;28;20038;-81
2021/01/05 11:47:13;;;;;;;26.00;11.57;;;3.00;93.60;;;;;;4976622;28;20034;-89
2021/01/05 11:49:38;;;;;;;25.30;11.25;;;3.00;93.60;;;;;;4965618;28;20046;-78
2021/01/05 11:52:04;;;;;;;25.60;11.40;;;3.00;93.60;;;;;;4991409;28;20381;-80
2021/01/05 11:54:30;;;;;;;26.33;12.33;;;2.90;93.60;;;;;;4986330;28;20019;-80
2021/01/05 11:56:57;;;;;;;27.73;12.60;;;2.90;93.60;;;;;;4964524;28;20030;-80
2021/01/05 11:59:23;;;;;;;27.80;13.10;;;2.90;93.70;;;;;;4965257;28;20094;-80
2021/01/05 12:01:49;;;;;;;29.93;13.13;;;2.90;93.80;;;;;;4998830;28;20471;-79
2021/01/05 12:04:14;;;;;;;29.20;12.73;;;2.90;93.80;;;;;;4998213;28;20077;-81
2021/01/05 12:06:40;;;;;;;28.77;13.73;;;3.00;93.80;;;;;;4998244;28;20026;-80
2021/01/05 12:09:08;;;;;;;28.30;14.50;;;3.00;93.80;;;;;;4964822;28;20493;-80
2021/01/05 12:11:35;;;;;;;27.00;12.73;;;2.90;93.80;;;;;;4981286;28;20489;-79
2021/01/05 12:14:03;;;;;;;27.83;12.87;;;3.00;93.80;;;;;;4962975;28;20276;-81
2021/01/05 12:16:33;;;;;;;28.63;12.90;;;3.00;93.70;;;;;;4961443;28;20366;-79
2021/01/05 12:19:00;;;;;;;27.07;12.83;;;3.00;93.80;;;;;;4993582;28;20544;-80
2021/01/05 12:21:38;;;;;;;26.90;12.57;;;3.00;93.80;;;;;;4997609;28;20053;-80
2021/01/05 12:24:05;;;;;;;30.70;12.90;;;3.00;93.70;;;;;;4981634;28;20045;-81
2021/01/05 12:26:37;;;;;;;24.40;12.47;;;3.00;93.80;;;;;;4960419;28;20045;-82
2021/01/05 12:29:09;;;;;;;25.53;11.53;;;3.00;93.70;;;;;;4973608;28;20050;-81
2021/01/05 12:31:41;;;;;;;24.27;11.83;;;3.10;93.70;;;;;;4996310;28;20032;-81
2021/01/05 12:34:08;;;;;;;22.33;10.87;;;3.10;93.80;;;;;;4980102;28;20054;-82
2021/01/05 12:36:36;;;;;;;25.20;11.53;;;3.10;93.70;;;;;;4977038;28;20031;-80
2021/01/05 12:39:04;;;;;;;22.98;10.70;;;3.10;93.70;;;;;;4976221;28;20039;-81
2021/01/05 12:41:32;;;;;;;24.70;10.83;;;3.10;93.70;;;;;;4977307;28;20031;-81
2021/01/05 12:43:58;;;;;;;24.47;10.50;;;3.10;93.70;;;;;;4977996;28;20023;-80
2021/01/05 12:46:31;;;;;;;24.70;10.30;;;3.10;93.70;;;;;;4974084;28;20540;-81
2021/01/05 12:48:57;;;;;;;22.03;9.70;;;3.10;93.80;;;;;;4975421;28;20023;-81
2021/01/05 12:51:31;;;;;;;23.57;10.63;;;3.10;93.70;;;;;;4985353;28;20094;-81
2021/01/05 12:53:57;;;;;;;22.43;10.87;;;3.10;93.70;;;;;;4960614;28;20038;-81
2021/01/05 12:59:51;;;;;;;22.70;10.00;;;3.10;93.60;;;;;;4980994;28;20054;-92
2021/01/05 13:02:25;;;;;;;22.77;10.23;;;3.10;93.70;;;;;;4960936;28;20018;-91